createdAt,value
2023-05-11T00:00:53.671Z,3.38
2023-05-11T00:03:21.058Z,3.53
2023-05-11T00:05:48.781Z,3.40
2023-05-11T00:08:17.003Z,3.42
2023-05-11T00:10:47.278Z,3.92
2023-05-11T00:13:14.655Z,3.25
2023-05-11T00:15:42.264Z,3.10
2023-05-11T00:18:09.651Z,3.30
2023-05-11T00:20:44.033Z,3.05
2023-05-11T00:23:27.536Z,3.05
2023-05-11T00:29:17.591Z,3.13
2023-05-11T00:31:47.343Z,3.55
2023-05-11T00:34:15.386Z,3.63
2023-05-11T00:40:40.471Z,3.40
2023-05-11T00:47:17.836Z,3.25
2023-05-11T00:53:51.101Z,3.25
2023-05-11T00:56:21.817Z,3.38
2023-05-11T00:58:49.207Z,3.35
2023-05-11T01:01:16.862Z,3.63
2023-05-11T01:04:02.627Z,3.80
2023-05-11T01:06:49.100Z,3.50
2023-05-11T01:09:27.335Z,3.53
2023-05-11T01:12:07.343Z,3.65
2023-05-11T01:14:39.135Z,3.70
2023-05-11T01:17:10.500Z,3.60
2023-05-11T01:19:41.157Z,3.47
2023-05-11T01:22:34.930Z,3.35
2023-05-11T01:25:02.162Z,3.38
2023-05-11T01:27:29.604Z,3.70
2023-05-11T01:30:12.976Z,3.95
2023-05-11T01:32:41.856Z,3.50
2023-05-11T01:35:21.925Z,3.85
2023-05-11T01:37:51.804Z,3.80
2023-05-11T01:40:22.008Z,3.75
2023-05-11T01:42:50.546Z,3.90
2023-05-11T01:45:19.153Z,4.07
2023-05-11T01:47:48.843Z,3.78
2023-05-11T01:50:24.190Z,3.75
2023-05-11T01:52:53.946Z,3.72
2023-05-11T01:55:22.212Z,3.92
2023-05-11T01:57:51.657Z,4.13
2023-05-11T02:00:21.859Z,3.90
2023-05-11T02:02:50.060Z,4.40
2023-05-11T02:05:22.088Z,4.10
2023-05-11T02:07:50.820Z,4.00
2023-05-11T02:10:40.230Z,4.80
2023-05-11T02:13:08.282Z,3.67
2023-05-11T02:18:58.682Z,4.10
2023-05-11T02:21:27.122Z,4.40
2023-05-11T02:23:54.762Z,4.25
2023-05-11T02:26:22.045Z,4.05
2023-05-11T02:28:49.729Z,4.28
2023-05-11T02:31:19.071Z,4.28
2023-05-11T02:33:49.557Z,4.68
2023-05-11T02:38:46.656Z,4.03
2023-05-11T02:41:15.976Z,3.72
2023-05-11T02:43:49.296Z,4.25
2023-05-11T02:46:18.921Z,4.55
2023-05-11T02:48:53.497Z,4.07
2023-05-11T02:51:23.262Z,4.07
2023-05-11T02:53:52.400Z,4.93
2023-05-11T02:56:19.804Z,4.90
2023-05-11T02:58:48.397Z,4.78
2023-05-11T03:01:22.773Z,3.97
2023-05-11T03:04:09.232Z,4.10
2023-05-11T03:11:16.201Z,4.28
2023-05-11T03:13:44.780Z,5.05
2023-05-11T03:16:12.162Z,4.20
2023-05-11T03:18:40.129Z,4.35
2023-05-11T03:21:07.866Z,4.40
2023-05-11T03:23:35.706Z,4.55
2023-05-11T03:26:03.979Z,4.25
2023-05-11T03:28:31.864Z,4.32
2023-05-11T03:31:00.283Z,4.47
2023-05-11T03:33:28.135Z,3.90
2023-05-11T03:35:55.822Z,4.30
2023-05-11T03:38:23.559Z,4.35
2023-05-11T03:40:52.391Z,3.95
2023-05-11T03:43:28.574Z,5.50
2023-05-11T03:45:56.922Z,4.05
2023-05-11T03:48:26.557Z,4.60
2023-05-11T03:50:54.366Z,4.20
2023-05-11T03:53:22.010Z,4.50
2023-05-11T03:55:49.220Z,4.40
2023-05-11T03:58:16.963Z,4.35
2023-05-11T04:00:44.476Z,4.30
2023-05-11T04:03:12.044Z,4.53
2023-05-11T04:05:41.154Z,4.60
2023-05-11T04:08:09.681Z,4.38
2023-05-11T04:10:36.962Z,4.45
2023-05-11T04:13:04.457Z,4.30
2023-05-11T04:15:31.667Z,4.20
2023-05-11T04:17:59.208Z,4.53
2023-05-11T04:20:26.460Z,4.50
2023-05-11T04:22:53.985Z,4.38
2023-05-11T04:25:21.205Z,3.83
2023-05-11T04:27:48.780Z,4.43
2023-05-11T04:30:16.160Z,4.88
2023-05-11T04:32:44.497Z,4.65
2023-05-11T04:35:11.950Z,4.45
2023-05-11T04:37:39.775Z,4.57
2023-05-11T04:40:07.381Z,4.97
2023-05-11T04:42:34.900Z,4.30
2023-05-11T04:45:02.092Z,4.18
2023-05-11T04:47:29.625Z,4.35
2023-05-11T04:50:16.186Z,4.82
2023-05-11T04:52:43.950Z,4.68
2023-05-11T04:55:11.148Z,3.95
2023-05-11T04:57:54.817Z,4.47
2023-05-11T05:00:22.360Z,4.55
2023-05-11T05:02:50.107Z,4.55
2023-05-11T05:05:17.649Z,4.85
2023-05-11T05:11:01.215Z,4.70
2023-05-11T05:13:29.839Z,4.90
2023-05-11T05:15:57.060Z,4.00
2023-05-11T05:18:24.634Z,4.03
2023-05-11T05:20:51.829Z,4.53
2023-05-11T05:23:19.362Z,4.10
2023-05-11T05:25:46.581Z,5.07
2023-05-11T05:28:14.091Z,4.80
2023-05-11T05:30:41.419Z,5.00
2023-05-11T05:33:08.954Z,4.53
2023-05-11T05:35:36.195Z,4.88
2023-05-11T05:38:03.688Z,4.68
2023-05-11T05:40:30.868Z,4.65
2023-05-11T05:42:58.360Z,4.95
2023-05-11T05:45:25.618Z,4.80
2023-05-11T05:47:53.208Z,5.38
2023-05-11T05:50:20.612Z,4.93
2023-05-11T05:52:48.265Z,5.35
2023-05-11T05:55:15.437Z,4.57
2023-05-11T05:57:42.906Z,6.90
2023-05-11T06:00:10.562Z,5.70
2023-05-11T06:02:43.382Z,5.35
2023-05-11T06:05:10.632Z,4.82
2023-05-11T06:07:39.219Z,6.22
2023-05-11T06:10:06.594Z,5.43
2023-05-11T06:12:34.185Z,4.93
2023-05-11T06:15:11.289Z,5.10
2023-05-11T06:17:39.899Z,5.43
2023-05-11T06:20:07.427Z,5.93
2023-05-11T06:22:37.008Z,5.90
2023-05-11T06:25:04.545Z,5.30
2023-05-11T06:27:35.893Z,5.07
2023-05-11T06:30:03.713Z,4.82
2023-05-11T06:32:31.522Z,4.95
2023-05-11T06:35:00.806Z,3.95
2023-05-11T06:37:31.138Z,4.25
2023-05-11T06:39:58.679Z,5.20
2023-05-11T06:42:26.170Z,5.10
2023-05-11T06:44:53.450Z,4.72
2023-05-11T06:47:21.018Z,4.00
2023-05-11T06:49:59.172Z,5.13
2023-05-11T06:52:26.724Z,4.70
2023-05-11T06:55:02.002Z,4.55
2023-05-11T06:57:32.310Z,5.15
2023-05-11T06:59:59.576Z,4.45
2023-05-11T07:02:27.093Z,4.57
2023-05-11T07:04:54.408Z,4.45
2023-05-11T07:07:22.033Z,5.05
2023-05-11T07:09:49.400Z,4.68
2023-05-11T07:12:16.942Z,4.70
2023-05-11T07:14:44.223Z,4.15
2023-05-11T07:17:11.893Z,4.28
2023-05-11T07:19:39.201Z,4.35
2023-05-11T07:22:07.706Z,4.30
2023-05-11T07:24:34.945Z,4.13
2023-05-11T07:27:02.433Z,4.38
2023-05-11T07:29:29.642Z,3.67
2023-05-11T07:31:57.353Z,3.67
2023-05-11T07:34:24.754Z,3.80
2023-05-11T07:36:52.237Z,3.65
2023-05-11T07:39:19.493Z,3.20
2023-05-11T07:41:46.978Z,3.10
2023-05-11T07:44:14.195Z,2.85
2023-05-11T07:46:41.913Z,3.20
2023-05-11T07:51:41.947Z,3.00
2023-05-11T07:54:19.575Z,2.72
2023-05-11T07:56:49.887Z,2.92
2023-05-11T07:59:17.163Z,2.53
2023-05-11T08:01:44.705Z,2.42
2023-05-11T08:04:11.922Z,2.40
2023-05-11T08:06:39.450Z,2.78
2023-05-11T08:09:06.683Z,2.60
2023-05-11T08:11:34.472Z,2.58
2023-05-11T08:14:02.628Z,2.75
2023-05-11T08:16:30.159Z,2.60
2023-05-11T08:18:57.443Z,2.60
2023-05-11T08:21:24.965Z,3.35
2023-05-11T08:23:52.166Z,2.60
2023-05-11T08:26:19.791Z,2.92
2023-05-11T08:28:47.003Z,2.60
2023-05-11T08:31:14.561Z,2.53
2023-05-11T08:33:41.887Z,2.90
2023-05-11T08:36:09.581Z,2.45
2023-05-11T08:38:36.786Z,2.67
2023-05-11T08:41:04.759Z,3.03
2023-05-11T08:43:34.282Z,2.88
2023-05-11T08:46:03.518Z,2.83
2023-05-11T08:48:31.638Z,3.40
2023-05-11T08:50:59.245Z,3.42
2023-05-11T08:53:26.602Z,3.30
2023-05-11T08:55:54.989Z,3.28
2023-05-11T08:58:22.632Z,3.33
2023-05-11T09:00:50.252Z,3.35
2023-05-11T09:03:18.243Z,3.20
2023-05-11T09:05:46.127Z,2.70
2023-05-11T09:08:14.273Z,3.17
2023-05-11T09:10:42.102Z,2.80
2023-05-11T09:13:09.744Z,2.58
2023-05-11T09:15:37.890Z,2.70
2023-05-11T09:18:06.102Z,3.00
2023-05-11T09:20:34.045Z,2.13
2023-05-11T09:23:01.901Z,2.45
2023-05-11T09:25:30.294Z,2.40
2023-05-11T09:27:59.161Z,2.78
2023-05-11T09:30:26.352Z,3.90
2023-05-11T09:32:54.969Z,3.08
2023-05-11T09:35:23.819Z,3.10
2023-05-11T09:38:03.404Z,2.55
2023-05-11T09:40:34.333Z,2.70
2023-05-11T09:43:03.044Z,2.33
2023-05-11T09:45:40.755Z,2.83
2023-05-11T09:48:28.477Z,2.60
2023-05-11T09:51:00.250Z,2.72
2023-05-11T09:53:43.925Z,2.33
2023-05-11T09:56:14.401Z,2.38
2023-05-11T09:58:51.931Z,3.20
2023-05-11T10:01:27.572Z,3.15
2023-05-11T10:04:02.581Z,3.20
2023-05-11T10:06:50.433Z,3.25
2023-05-11T10:09:18.820Z,2.95
2023-05-11T10:11:46.618Z,3.03
2023-05-11T10:14:14.523Z,2.83
2023-05-11T10:16:42.616Z,2.20
2023-05-11T10:19:10.572Z,2.42
2023-05-11T10:21:37.907Z,1.60
2023-05-11T10:24:05.830Z,1.50
2023-05-11T10:26:33.092Z,1.52
2023-05-11T10:29:01.024Z,1.23
2023-05-11T10:31:28.946Z,1.13
2023-05-11T10:33:57.161Z,1.88
2023-05-11T10:36:24.875Z,1.63
2023-05-11T10:38:52.382Z,1.60
2023-05-11T10:41:28.395Z,1.70
2023-05-11T10:44:26.196Z,1.63
2023-05-11T10:46:56.196Z,1.77
2023-05-11T10:49:29.545Z,1.67
2023-05-11T10:52:08.183Z,1.63
2023-05-11T10:54:38.544Z,1.55
2023-05-11T10:57:11.740Z,1.75
2023-05-11T10:59:50.646Z,1.98
2023-05-11T11:02:18.058Z,1.85
2023-05-11T11:04:49.365Z,1.90
2023-05-11T11:07:16.894Z,1.70
2023-05-11T11:09:50.184Z,1.17
2023-05-11T11:12:17.559Z,1.27
2023-05-11T11:14:58.218Z,1.48
2023-05-11T11:17:28.852Z,1.65
2023-05-11T11:20:00.019Z,1.15
2023-05-11T11:22:36.140Z,1.15
2023-05-11T11:25:10.355Z,1.65
2023-05-11T11:27:40.640Z,1.70
2023-05-11T11:30:26.847Z,1.75
2023-05-11T11:32:55.667Z,1.67
2023-05-11T11:35:42.131Z,2.00
2023-05-11T11:38:19.380Z,1.92
2023-05-11T11:40:51.070Z,1.80
2023-05-11T11:43:26.044Z,1.98
2023-05-11T11:45:54.706Z,2.00
2023-05-11T11:48:31.939Z,2.28
2023-05-11T11:51:02.299Z,2.05
2023-05-11T11:53:38.582Z,2.17
2023-05-11T11:56:15.002Z,2.50
2023-05-11T11:58:42.304Z,1.63
2023-05-11T12:01:12.049Z,2.08
2023-05-11T12:03:40.078Z,2.22
2023-05-11T12:06:08.476Z,3.13
2023-05-11T12:08:36.509Z,2.15
2023-05-11T12:11:04.619Z,2.10
2023-05-11T12:13:32.447Z,1.90
2023-05-11T12:16:09.791Z,1.83
2023-05-11T12:18:37.027Z,2.25
2023-05-11T12:21:04.876Z,2.25
2023-05-11T12:23:32.190Z,2.22
2023-05-11T12:26:06.465Z,1.92
2023-05-11T12:28:33.788Z,2.17
2023-05-11T12:31:01.631Z,2.10
2023-05-11T12:33:28.840Z,2.20
2023-05-11T12:35:56.822Z,2.50
2023-05-11T12:38:24.022Z,2.40
2023-05-11T12:40:52.411Z,2.40
2023-05-11T12:43:21.191Z,2.20
2023-05-11T12:45:48.868Z,2.30
2023-05-11T12:48:16.421Z,2.67
2023-05-11T12:50:44.543Z,2.50
2023-05-11T12:53:15.313Z,2.50
2023-05-11T12:55:43.264Z,3.03
2023-05-11T12:58:14.365Z,2.42
2023-05-11T13:00:51.650Z,2.60
2023-05-11T13:03:25.760Z,2.25
2023-05-11T13:06:09.569Z,1.95
2023-05-11T13:08:37.513Z,2.25
2023-05-11T13:11:18.377Z,2.47
2023-05-11T13:13:45.590Z,2.20
2023-05-11T13:16:23.114Z,2.80
2023-05-11T13:19:11.202Z,2.28
2023-05-11T13:21:38.774Z,2.67
2023-05-11T13:24:06.158Z,2.35
2023-05-11T13:26:33.813Z,2.28
2023-05-11T13:29:10.935Z,2.20
2023-05-11T13:31:46.242Z,2.10
2023-05-11T13:34:13.930Z,2.40
2023-05-11T13:36:41.772Z,2.03
2023-05-11T13:39:09.258Z,2.08
2023-05-11T13:41:37.216Z,2.50
2023-05-11T13:44:04.624Z,1.83
2023-05-11T13:46:32.426Z,2.10
2023-05-11T13:48:59.692Z,1.88
2023-05-11T13:51:27.166Z,2.22
2023-05-11T13:53:54.583Z,2.10
2023-05-11T13:56:24.591Z,2.10
2023-05-11T13:58:51.859Z,2.28
2023-05-11T14:01:20.294Z,2.10
2023-05-11T14:03:51.645Z,2.33
2023-05-11T14:06:20.892Z,2.50
2023-05-11T14:08:51.013Z,1.98
2023-05-11T14:11:18.535Z,2.10
2023-05-11T14:13:46.212Z,2.30
2023-05-11T14:16:14.026Z,2.83
2023-05-11T14:18:42.953Z,2.72
2023-05-11T14:21:10.551Z,2.50
2023-05-11T14:23:41.638Z,2.42
2023-05-11T14:26:12.589Z,2.38
2023-05-11T14:28:42.581Z,2.28
2023-05-11T14:31:10.435Z,2.30
2023-05-11T14:33:39.214Z,2.00
2023-05-11T14:36:07.914Z,2.38
2023-05-11T14:38:35.141Z,2.17
2023-05-11T14:41:02.846Z,2.30
2023-05-11T14:43:34.422Z,2.35
2023-05-11T14:46:03.333Z,2.30
2023-05-11T14:48:30.794Z,2.38
2023-05-11T14:50:58.786Z,2.22
2023-05-11T14:53:26.033Z,2.55
2023-05-11T14:55:53.712Z,2.42
2023-05-11T14:58:20.915Z,2.45
2023-05-11T15:00:49.949Z,2.28
2023-05-11T15:03:37.337Z,2.42
2023-05-11T15:06:05.379Z,2.35
2023-05-11T15:08:32.644Z,2.20
2023-05-11T15:11:04.446Z,2.33
2023-05-11T15:13:42.286Z,2.10
2023-05-11T15:16:10.144Z,2.80
2023-05-11T15:18:38.842Z,2.33
2023-05-11T15:21:07.352Z,2.53
2023-05-11T15:23:43.358Z,2.78
2023-05-11T15:26:17.506Z,2.28
2023-05-11T15:28:45.419Z,2.30
2023-05-11T15:31:16.378Z,2.50
2023-05-11T15:33:47.251Z,2.08
2023-05-11T15:36:18.450Z,2.22
2023-05-11T15:38:45.761Z,2.28
2023-05-11T15:41:13.804Z,2.35
2023-05-11T15:43:41.027Z,2.22
2023-05-11T15:46:08.535Z,2.30
2023-05-11T15:48:35.797Z,2.70
2023-05-11T15:51:03.380Z,2.40
2023-05-11T15:53:31.282Z,2.20
2023-05-11T15:55:58.727Z,2.65
2023-05-11T15:58:32.552Z,2.35
2023-05-11T16:01:00.447Z,2.30
2023-05-11T16:03:28.114Z,2.60
2023-05-11T16:05:55.658Z,2.13
2023-05-11T16:08:22.963Z,2.50
2023-05-11T16:10:51.396Z,2.60
2023-05-11T16:13:19.546Z,2.35
2023-05-11T16:15:47.077Z,2.70
2023-05-11T16:18:14.425Z,2.55
2023-05-11T16:20:42.032Z,3.05
2023-05-11T16:23:09.251Z,2.90
2023-05-11T16:25:37.385Z,2.63
2023-05-11T16:28:04.789Z,2.90
2023-05-11T16:30:32.704Z,2.65
2023-05-11T16:33:00.175Z,2.67
2023-05-11T16:35:27.708Z,2.88
2023-05-11T16:37:54.902Z,2.60
2023-05-11T16:40:22.699Z,2.70
2023-05-11T16:42:50.249Z,2.60
2023-05-11T16:45:17.863Z,2.80
2023-05-11T16:47:45.204Z,2.50
2023-05-11T16:50:12.941Z,2.47
2023-05-11T16:52:40.893Z,2.33
2023-05-11T16:55:08.640Z,2.30
2023-05-11T16:57:35.877Z,2.25
2023-05-11T17:00:03.570Z,2.42
2023-05-11T17:02:30.860Z,2.35
2023-05-11T17:05:00.161Z,2.30
2023-05-11T17:07:27.449Z,2.30
2023-05-11T17:09:54.960Z,4.32
2023-05-11T17:12:22.501Z,2.53
2023-05-11T17:14:49.985Z,2.10
2023-05-11T17:17:17.324Z,2.40
2023-05-11T17:19:44.875Z,2.30
2023-05-11T17:22:13.210Z,2.25
2023-05-11T17:24:40.777Z,1.98
2023-05-11T17:27:08.070Z,2.28
2023-05-11T17:29:35.559Z,2.38
2023-05-11T17:32:03.071Z,2.10
2023-05-11T17:34:30.984Z,2.22
2023-05-11T17:36:58.334Z,2.30
2023-05-11T17:39:25.913Z,2.25
2023-05-11T17:41:53.230Z,2.38
2023-05-11T17:44:20.729Z,2.15
2023-05-11T17:46:49.046Z,2.30
2023-05-11T17:49:16.636Z,2.35
2023-05-11T17:51:43.962Z,1.90
2023-05-11T17:54:12.104Z,1.90
2023-05-11T17:56:47.435Z,2.25
2023-05-11T17:59:15.122Z,2.10
2023-05-11T18:01:43.757Z,1.90
2023-05-11T18:04:11.260Z,2.33
2023-05-11T18:06:38.566Z,1.67
2023-05-11T18:09:06.123Z,2.15
2023-05-11T18:11:51.957Z,2.08
2023-05-11T18:14:19.631Z,1.90
2023-05-11T18:16:46.824Z,2.00
2023-05-11T18:19:14.479Z,1.80
2023-05-11T18:21:41.821Z,1.90
2023-05-11T18:24:12.518Z,1.80
2023-05-11T18:26:40.638Z,1.80
2023-05-11T18:29:08.247Z,1.80
2023-05-11T18:31:36.677Z,1.90
2023-05-11T18:34:04.281Z,1.45
2023-05-11T18:36:31.521Z,1.67
2023-05-11T18:38:58.979Z,1.83
2023-05-11T18:41:26.186Z,1.92
2023-05-11T18:43:53.661Z,2.10
2023-05-11T18:46:20.908Z,1.90
2023-05-11T18:48:48.498Z,1.90
2023-05-11T18:51:15.846Z,2.25
2023-05-11T18:53:43.343Z,1.95
2023-05-11T18:56:10.548Z,2.03
2023-05-11T18:58:38.019Z,2.10
2023-05-11T19:01:05.323Z,2.03
2023-05-11T19:03:32.975Z,1.75
2023-05-11T19:06:00.240Z,2.03
2023-05-11T19:08:28.291Z,2.10
2023-05-11T19:10:57.116Z,1.70
2023-05-11T19:13:24.917Z,1.85
2023-05-11T19:15:52.146Z,1.77
2023-05-11T19:18:19.742Z,2.03
2023-05-11T19:20:47.324Z,1.70
2023-05-11T19:23:15.082Z,2.10
2023-05-11T19:25:42.364Z,2.15
2023-05-11T19:28:09.854Z,2.08
2023-05-11T19:30:37.478Z,2.28
2023-05-11T19:33:05.061Z,2.20
2023-05-11T19:35:32.420Z,2.20
2023-05-11T19:37:59.961Z,2.30
2023-05-11T19:40:45.256Z,2.30
2023-05-11T19:43:14.179Z,2.28
2023-05-11T19:45:41.462Z,2.30
2023-05-11T19:48:09.118Z,2.40
2023-05-11T19:50:36.461Z,2.53
2023-05-11T19:53:04.100Z,2.38
2023-05-11T19:55:31.376Z,2.13
2023-05-11T19:57:58.933Z,2.50
2023-05-11T20:00:26.130Z,2.20
2023-05-11T20:02:54.136Z,2.38
2023-05-11T20:05:21.614Z,2.20
2023-05-11T20:07:49.242Z,2.58
2023-05-11T20:10:16.837Z,2.63
2023-05-11T20:12:44.723Z,2.50
2023-05-11T20:15:13.733Z,2.80
2023-05-11T20:17:41.843Z,2.50
2023-05-11T20:20:09.374Z,3.05
2023-05-11T20:22:37.267Z,2.67
2023-05-11T20:25:09.604Z,2.22
2023-05-11T20:27:44.418Z,2.55
2023-05-11T20:30:11.953Z,2.88
2023-05-11T20:34:06.825Z,2.10
2023-05-11T20:35:30.085Z,2.60
2023-05-11T20:37:58.905Z,2.63
2023-05-11T20:40:26.316Z,2.22
2023-05-11T20:42:53.859Z,2.63
2023-05-11T20:45:21.156Z,2.80
2023-05-11T20:47:48.761Z,2.60
2023-05-11T20:50:17.243Z,2.78
2023-05-11T20:52:44.795Z,2.55
2023-05-11T20:55:12.066Z,2.53
2023-05-11T20:57:39.846Z,2.88
2023-05-11T21:00:07.561Z,2.90
2023-05-11T21:02:35.301Z,2.83
2023-05-11T21:05:03.682Z,2.78
2023-05-11T21:07:31.229Z,3.03
2023-05-11T21:09:58.416Z,3.05
2023-05-11T21:12:25.872Z,2.67
2023-05-11T21:14:54.450Z,3.00
2023-05-11T21:17:23.777Z,2.72
2023-05-11T21:19:51.102Z,2.72
2023-05-11T21:22:18.610Z,2.70
2023-05-11T21:24:46.103Z,3.25
2023-05-11T21:27:13.979Z,3.10
2023-05-11T21:29:41.554Z,2.83
2023-05-11T21:32:09.074Z,3.20
2023-05-11T21:34:36.390Z,2.58
2023-05-11T21:37:03.978Z,2.95
2023-05-11T21:39:31.168Z,3.00
2023-05-11T21:42:00.265Z,2.97
2023-05-11T21:44:27.451Z,2.70
2023-05-11T21:46:55.039Z,3.20
2023-05-11T21:49:22.427Z,2.78
2023-05-11T21:51:49.960Z,3.10
2023-05-11T21:54:17.178Z,2.90
2023-05-11T21:56:44.679Z,3.13
2023-05-11T21:59:11.945Z,2.97
2023-05-11T22:01:39.474Z,2.55
2023-05-11T22:04:06.840Z,3.25
2023-05-11T22:06:34.874Z,2.97
2023-05-11T22:09:02.180Z,2.72
2023-05-11T22:11:29.707Z,3.13
2023-05-11T22:13:56.945Z,3.25
2023-05-11T22:16:24.455Z,3.65
2023-05-11T22:18:51.681Z,2.90
2023-05-11T22:21:19.191Z,2.78
2023-05-11T22:23:46.462Z,2.80
2023-05-11T22:26:13.964Z,3.05
2023-05-11T22:28:41.140Z,3.05
2023-05-11T22:31:08.709Z,3.05
2023-05-11T22:33:35.897Z,3.50
2023-05-11T22:36:03.550Z,3.50
2023-05-11T22:38:30.724Z,3.25
2023-05-11T22:40:58.185Z,3.10
2023-05-11T22:43:25.387Z,3.10
2023-05-11T22:45:52.947Z,3.00
2023-05-11T22:48:20.163Z,3.17
2023-05-11T22:50:47.671Z,2.78
2023-05-11T22:53:14.929Z,3.03
2023-05-11T22:55:42.408Z,2.60
2023-05-11T22:58:09.646Z,2.88
2023-05-11T23:00:37.242Z,3.10
2023-05-11T23:03:04.607Z,3.33
2023-05-11T23:05:32.232Z,3.30
2023-05-11T23:07:59.516Z,2.97
2023-05-11T23:10:27.149Z,2.85
2023-05-11T23:12:54.791Z,3.53
2023-05-11T23:15:22.274Z,3.05
2023-05-11T23:17:49.596Z,3.35
2023-05-11T23:20:17.334Z,2.70
2023-05-11T23:22:44.867Z,3.47
2023-05-11T23:25:12.361Z,3.38
2023-05-11T23:27:39.543Z,3.65
2023-05-11T23:30:07.312Z,3.40
2023-05-11T23:32:34.549Z,3.08
2023-05-11T23:35:02.053Z,3.25
2023-05-11T23:37:29.228Z,3.10
2023-05-11T23:39:56.736Z,3.17
2023-05-11T23:42:23.887Z,3.78
2023-05-11T23:44:51.436Z,3.65
2023-05-11T23:47:18.706Z,3.10
2023-05-11T23:49:46.222Z,3.42
2023-05-11T23:52:13.478Z,3.63
2023-05-11T23:54:40.991Z,4.03
2023-05-11T23:57:08.150Z,3.30
2023-05-11T23:59:35.682Z,3.38
